createdAt,value
2022-11-17T00:02:06.177Z,100121.63
2022-11-17T00:04:34.367Z,100121.72
2022-11-17T00:07:00.950Z,100118.03
2022-11-17T00:09:27.222Z,100113.63
2022-11-17T00:12:17.984Z,100115.06
2022-11-17T00:14:46.813Z,100112.88
2022-11-17T00:17:13.442Z,100109.91
2022-11-17T00:20:00.764Z,100105.69
2022-11-17T00:22:31.201Z,100102.47
2022-11-17T00:24:57.497Z,100106.78
2022-11-17T00:27:24.314Z,100110.69
2022-11-17T00:29:50.553Z,100098.56
2022-11-17T00:32:37.199Z,100098.94
2022-11-17T00:35:05.316Z,100101.47
2022-11-17T00:37:38.510Z,100089.16
2022-11-17T00:40:05.602Z,100089.84
2022-11-17T00:42:32.167Z,100098.94
2022-11-17T00:44:58.332Z,100091.63
2022-11-17T00:47:24.806Z,100089.91
2022-11-17T00:49:50.980Z,100101.13
2022-11-17T00:52:17.490Z,100096.06
2022-11-17T00:54:43.730Z,100090.50
2022-11-17T00:57:10.716Z,100087.09
2022-11-17T00:59:36.900Z,100104.47
2022-11-17T01:02:03.362Z,100106.13
2022-11-17T01:04:29.584Z,100099.59
2022-11-17T01:06:56.144Z,100098.16
2022-11-17T01:09:23.529Z,100095.28
2022-11-17T01:11:52.075Z,100098.16
2022-11-17T01:14:21.987Z,100097.63
2022-11-17T01:16:48.447Z,100098.09
2022-11-17T01:19:15.655Z,100094.84
2022-11-17T01:21:42.585Z,100085.34
2022-11-17T01:24:10.796Z,100097.06
2022-11-17T01:26:38.749Z,100092.94
2022-11-17T01:29:06.174Z,100090.84
2022-11-17T01:31:35.749Z,100090.53
2022-11-17T01:34:02.366Z,100089.38
2022-11-17T01:36:51.584Z,100080.59
2022-11-17T01:39:17.844Z,100089.81
2022-11-17T01:41:44.402Z,100087.53
2022-11-17T01:44:35.749Z,100084.84
2022-11-17T01:47:20.164Z,100079.41
2022-11-17T01:49:48.344Z,100074.81
2022-11-17T01:52:15.141Z,100074.59
2022-11-17T01:54:42.790Z,100071.59
2022-11-17T01:57:14.111Z,100062.25
2022-11-17T01:59:45.702Z,100070.44
2022-11-17T02:02:12.075Z,100063.50
2022-11-17T02:04:52.983Z,100075.44
2022-11-17T02:07:25.142Z,100070.72
2022-11-17T02:09:55.445Z,100069.75
2022-11-17T02:12:26.145Z,100072.13
2022-11-17T02:14:53.894Z,100072.41
2022-11-17T02:17:22.902Z,100071.81
2022-11-17T02:20:35.675Z,100080.41
2022-11-17T02:23:36.583Z,100077.13
2022-11-17T02:26:14.696Z,100073.16
2022-11-17T02:29:20.209Z,100068.78
2022-11-17T02:32:18.768Z,100064.97
2022-11-17T02:34:48.000Z,100063.72
2022-11-17T02:37:26.230Z,100053.47
2022-11-17T02:40:06.175Z,100069.66
2022-11-17T02:43:13.504Z,100062.00
2022-11-17T02:45:47.819Z,100063.81
2022-11-17T02:48:21.603Z,100061.31
2022-11-17T02:50:49.831Z,100056.75
2022-11-17T02:53:17.899Z,100065.25
2022-11-17T02:55:50.124Z,100066.66
2022-11-17T02:58:16.348Z,100067.31
2022-11-17T03:01:21.433Z,100066.22
2022-11-17T03:04:38.743Z,100064.75
2022-11-17T03:07:26.863Z,100051.81
2022-11-17T03:10:14.617Z,100063.63
2022-11-17T03:13:06.449Z,100062.63
2022-11-17T03:15:48.792Z,100062.50
2022-11-17T03:18:25.952Z,100057.66
2022-11-17T03:21:04.818Z,100051.13
2022-11-17T03:23:44.061Z,100040.63
2022-11-17T03:26:15.075Z,100038.66
2022-11-17T03:28:45.591Z,100042.97
2022-11-17T03:31:14.541Z,100038.03
2022-11-17T03:33:44.614Z,100037.50
2022-11-17T03:36:23.425Z,100038.66
2022-11-17T03:38:58.317Z,100039.47
2022-11-17T03:41:26.760Z,100038.06
2022-11-17T03:43:55.912Z,100030.19
2022-11-17T03:46:26.065Z,100031.00
2022-11-17T03:49:06.093Z,100037.13
2022-11-17T03:51:32.816Z,100047.41
2022-11-17T03:54:00.198Z,100033.59
2022-11-17T03:56:43.599Z,100030.97
2022-11-17T03:59:28.939Z,100039.22
2022-11-17T04:01:55.756Z,100034.63
2022-11-17T04:04:22.580Z,100025.38
2022-11-17T04:06:52.558Z,100037.41
2022-11-17T04:09:24.189Z,100035.13
2022-11-17T04:12:09.552Z,100036.94
2022-11-17T04:14:54.579Z,100039.47
2022-11-17T04:17:20.948Z,100035.63
2022-11-17T04:19:48.039Z,100037.06
2022-11-17T04:22:14.365Z,100046.53
2022-11-17T04:24:40.989Z,100053.72
2022-11-17T04:27:26.287Z,100061.59
2022-11-17T04:29:52.853Z,100061.53
2022-11-17T04:32:19.335Z,100046.41
2022-11-17T04:34:45.867Z,100048.84
2022-11-17T04:37:16.634Z,100034.97
2022-11-17T04:39:44.231Z,100040.16
2022-11-17T04:42:10.582Z,100045.00
2022-11-17T04:44:37.115Z,100040.56
2022-11-17T04:47:03.598Z,100042.44
2022-11-17T04:49:31.428Z,100041.44
2022-11-17T04:51:57.614Z,100035.50
2022-11-17T04:54:24.645Z,100040.03
2022-11-17T04:56:52.087Z,100042.16
2022-11-17T04:59:18.711Z,100039.31
2022-11-17T05:01:45.733Z,100031.88
2022-11-17T05:04:14.701Z,100037.66
2022-11-17T05:06:43.946Z,100046.59
2022-11-17T05:09:13.507Z,100051.13
2022-11-17T05:11:59.035Z,100054.00
2022-11-17T05:14:27.035Z,100055.94
2022-11-17T05:17:09.608Z,100047.81
2022-11-17T05:19:40.229Z,100053.25
2022-11-17T05:22:27.042Z,100044.94
2022-11-17T05:24:53.921Z,100039.34
2022-11-17T05:27:21.148Z,100051.38
2022-11-17T05:29:47.662Z,100049.97
2022-11-17T05:32:13.971Z,100040.38
2022-11-17T05:34:40.408Z,100043.25
2022-11-17T05:37:06.864Z,100055.56
2022-11-17T05:39:33.220Z,100051.69
2022-11-17T05:41:59.420Z,100051.94
2022-11-17T05:44:25.916Z,100047.41
2022-11-17T05:46:52.015Z,100040.63
2022-11-17T05:49:18.442Z,100043.16
2022-11-17T05:51:47.446Z,100049.13
2022-11-17T05:54:17.960Z,100039.78
2022-11-17T05:56:52.167Z,100047.97
2022-11-17T05:59:28.205Z,100061.44
2022-11-17T06:02:03.483Z,100049.28
2022-11-17T06:04:30.725Z,100054.50
2022-11-17T06:06:59.469Z,100060.22
2022-11-17T06:09:33.216Z,100065.81
2022-11-17T06:12:04.280Z,100061.31
2022-11-17T06:14:32.168Z,100059.25
2022-11-17T06:17:05.163Z,100069.31
2022-11-17T06:19:38.527Z,100059.88
2022-11-17T06:22:12.282Z,100055.59
2022-11-17T06:24:42.706Z,100066.34
2022-11-17T06:27:11.017Z,100060.84
2022-11-17T06:29:43.587Z,100066.47
2022-11-17T06:32:13.576Z,100066.66
2022-11-17T06:34:41.490Z,100069.66
2022-11-17T06:37:07.917Z,100068.41
2022-11-17T06:39:34.066Z,100062.25
2022-11-17T06:42:00.449Z,100063.13
2022-11-17T06:44:26.520Z,100057.06
2022-11-17T06:46:52.924Z,100071.00
2022-11-17T06:49:19.177Z,100060.09
2022-11-17T06:51:45.855Z,100053.34
2022-11-17T06:54:13.790Z,100055.56
2022-11-17T06:56:40.447Z,100061.59
2022-11-17T06:59:06.631Z,100062.78
2022-11-17T07:01:33.168Z,100053.44
2022-11-17T07:03:59.228Z,100055.69
2022-11-17T07:06:25.771Z,100074.44
2022-11-17T07:08:51.919Z,100061.78
2022-11-17T07:11:18.504Z,100067.88
2022-11-17T07:13:44.893Z,100067.88
2022-11-17T07:16:22.848Z,100064.81
2022-11-17T07:18:49.685Z,100061.66
2022-11-17T07:21:17.195Z,100070.78
2022-11-17T07:23:44.242Z,100068.66
2022-11-17T07:26:11.289Z,100068.94
2022-11-17T07:28:38.039Z,100062.28
2022-11-17T07:31:07.261Z,100059.59
2022-11-17T07:33:33.740Z,100069.19
2022-11-17T07:36:11.159Z,100060.41
2022-11-17T07:38:39.087Z,100069.00
2022-11-17T07:41:08.034Z,100067.34
2022-11-17T07:43:35.518Z,100076.53
2022-11-17T07:46:10.531Z,100072.44
2022-11-17T07:48:37.753Z,100062.97
2022-11-17T07:51:05.165Z,100071.88
2022-11-17T07:53:33.929Z,100075.00
2022-11-17T07:56:08.402Z,100064.34
2022-11-17T07:58:35.603Z,100068.81
2022-11-17T08:01:16.692Z,100073.69
2022-11-17T08:03:43.697Z,100063.81
2022-11-17T08:06:10.507Z,100065.38
2022-11-17T08:08:38.366Z,100060.22
2022-11-17T08:11:07.603Z,100060.75
2022-11-17T08:13:34.599Z,100047.13
2022-11-17T08:16:01.667Z,100052.09
2022-11-17T08:18:28.485Z,100064.66
2022-11-17T08:21:06.601Z,100052.88
2022-11-17T08:23:33.463Z,100060.66
2022-11-17T08:26:01.949Z,100053.53
2022-11-17T08:28:28.250Z,100059.81
2022-11-17T08:30:55.268Z,100048.53
2022-11-17T08:33:21.613Z,100074.69
2022-11-17T08:35:48.179Z,100079.41
2022-11-17T08:38:18.108Z,100073.69
2022-11-17T08:40:47.131Z,100070.56
2022-11-17T08:43:13.686Z,100068.84
2022-11-17T08:45:42.259Z,100080.38
2022-11-17T08:48:08.439Z,100082.09
2022-11-17T08:50:37.859Z,100079.97
2022-11-17T08:53:04.120Z,100082.66
2022-11-17T08:55:30.602Z,100087.16
2022-11-17T08:57:56.769Z,100080.59
2022-11-17T09:00:23.520Z,100100.13
2022-11-17T09:02:49.653Z,100096.94
2022-11-17T09:05:16.208Z,100087.97
2022-11-17T09:07:42.422Z,100093.81
2022-11-17T09:10:10.347Z,100088.28
2022-11-17T09:12:36.887Z,100095.16
2022-11-17T09:15:04.533Z,100089.81
2022-11-17T09:17:31.385Z,100095.28
2022-11-17T09:19:57.791Z,100091.50
2022-11-17T09:22:24.065Z,100087.72
2022-11-17T09:24:50.517Z,100092.13
2022-11-17T09:27:16.621Z,100093.38
2022-11-17T09:29:43.050Z,100094.22
2022-11-17T09:32:09.234Z,100085.56
2022-11-17T09:34:35.665Z,100092.28
2022-11-17T09:37:01.865Z,100096.09
2022-11-17T09:39:28.340Z,100093.94
2022-11-17T09:41:56.592Z,100092.13
2022-11-17T09:44:47.093Z,100090.88
2022-11-17T09:47:31.736Z,100086.19
2022-11-17T09:50:04.069Z,100090.94
2022-11-17T09:52:49.225Z,100086.97
2022-11-17T09:55:45.551Z,100088.59
2022-11-17T09:58:29.203Z,100085.44
2022-11-17T10:00:55.679Z,100082.09
2022-11-17T10:03:27.642Z,100069.22
2022-11-17T10:05:54.660Z,100072.75
2022-11-17T10:08:31.147Z,100065.84
2022-11-17T10:10:57.641Z,100069.09
2022-11-17T10:13:32.127Z,100065.13
2022-11-17T10:16:04.887Z,100062.28
2022-11-17T10:18:38.041Z,100072.22
2022-11-17T10:21:06.443Z,100063.84
2022-11-17T10:23:39.792Z,100073.03
2022-11-17T10:26:12.665Z,100066.25
2022-11-17T10:28:39.883Z,100065.97
2022-11-17T10:31:15.203Z,100072.63
2022-11-17T10:33:46.961Z,100070.94
2022-11-17T10:36:25.488Z,100072.22
2022-11-17T10:38:53.780Z,100063.44
2022-11-17T10:41:25.053Z,100052.66
2022-11-17T10:44:11.349Z,100065.41
2022-11-17T10:47:02.354Z,100070.22
2022-11-17T10:49:34.677Z,100065.84
2022-11-17T10:52:08.613Z,100046.72
2022-11-17T10:54:34.828Z,100047.56
2022-11-17T10:57:04.821Z,100062.88
2022-11-17T10:59:41.218Z,100059.16
2022-11-17T11:02:26.249Z,100060.28
2022-11-17T11:05:18.330Z,100071.34
2022-11-17T11:08:18.827Z,100071.50
2022-11-17T11:11:14.034Z,100066.41
2022-11-17T11:14:10.309Z,100071.09
2022-11-17T11:16:36.566Z,100067.97
2022-11-17T11:19:08.311Z,100065.13
2022-11-17T11:22:21.501Z,100062.03
2022-11-17T11:24:59.930Z,100059.34
2022-11-17T11:27:48.693Z,100062.44
2022-11-17T11:30:17.066Z,100065.00
2022-11-17T11:32:58.292Z,100068.53
2022-11-17T11:35:36.190Z,100047.88
2022-11-17T11:38:34.590Z,100059.47
2022-11-17T11:41:23.342Z,100061.75
2022-11-17T11:44:02.243Z,100072.06
2022-11-17T11:46:38.163Z,100069.38
2022-11-17T11:49:32.765Z,100061.59
2022-11-17T11:52:00.019Z,100065.84
2022-11-17T11:54:47.756Z,100060.88
2022-11-17T11:57:22.006Z,100052.09
2022-11-17T11:59:59.482Z,100055.06
2022-11-17T12:02:50.712Z,100050.97
2022-11-17T12:05:44.677Z,100051.41
2022-11-17T12:08:20.128Z,100054.94
2022-11-17T12:10:58.444Z,100048.41
2022-11-17T12:13:25.659Z,100058.47
2022-11-17T12:16:18.898Z,100049.28
2022-11-17T12:18:45.028Z,100051.50
2022-11-17T12:21:13.079Z,100051.81
2022-11-17T12:23:57.366Z,100052.69
2022-11-17T12:26:34.325Z,100037.66
2022-11-17T12:29:19.199Z,100050.13
2022-11-17T12:31:54.431Z,100051.13
2022-11-17T12:34:30.907Z,100049.00
2022-11-17T12:37:16.143Z,100046.56
2022-11-17T12:40:03.054Z,100058.31
2022-11-17T12:42:32.830Z,100052.63
2022-11-17T12:45:00.096Z,100049.25
2022-11-17T12:47:31.985Z,100049.66
2022-11-17T12:50:17.313Z,100051.69
2022-11-17T12:53:11.414Z,100046.16
2022-11-17T12:55:40.498Z,100051.97
2022-11-17T12:58:30.051Z,100048.97
2022-11-17T13:01:10.940Z,100049.84
2022-11-17T13:03:51.846Z,100055.75
2022-11-17T13:06:36.252Z,100050.38
2022-11-17T13:09:11.020Z,100060.03
2022-11-17T13:11:37.456Z,100044.13
2022-11-17T13:14:14.612Z,100045.84
2022-11-17T13:16:47.741Z,100052.94
2022-11-17T13:19:41.075Z,100040.63
2022-11-17T13:22:10.368Z,100046.00
2022-11-17T13:24:39.927Z,100043.47
2022-11-17T13:27:26.256Z,100046.16
2022-11-17T13:30:13.345Z,100029.97
2022-11-17T13:32:40.995Z,100027.38
2022-11-17T13:35:22.521Z,100035.44
2022-11-17T13:38:10.864Z,100032.22
2022-11-17T13:40:40.141Z,100032.13
2022-11-17T13:43:11.416Z,100037.03
2022-11-17T13:45:38.204Z,100038.94
2022-11-17T13:48:04.505Z,100041.47
2022-11-17T13:50:31.280Z,100035.97
2022-11-17T13:53:01.590Z,100037.91
2022-11-17T13:55:28.977Z,100028.88
2022-11-17T13:58:04.796Z,100026.91
2022-11-17T14:00:32.937Z,100026.78
2022-11-17T14:03:32.905Z,100020.63
2022-11-17T14:05:59.595Z,100017.84
2022-11-17T14:08:31.322Z,100022.72
2022-11-17T14:11:15.641Z,100010.03
2022-11-17T14:13:58.315Z,100018.09
2022-11-17T14:16:31.942Z,100009.91
2022-11-17T14:19:04.813Z,100000.72
2022-11-17T14:21:31.874Z,100009.53
2022-11-17T14:24:04.858Z,100004.84
2022-11-17T14:26:32.545Z,100012.19
2022-11-17T14:29:01.627Z,100000.94
2022-11-17T14:31:29.921Z,99989.94
2022-11-17T14:33:56.359Z,99983.06
2022-11-17T14:36:23.258Z,99991.41
2022-11-17T14:38:49.669Z,99991.63
2022-11-17T14:41:17.889Z,99989.13
2022-11-17T14:43:44.617Z,99970.75
2022-11-17T14:46:19.189Z,99981.84
2022-11-17T14:48:45.538Z,99975.78
2022-11-17T14:51:15.950Z,99976.25
2022-11-17T14:53:43.777Z,99982.47
2022-11-17T14:56:11.948Z,99976.50
2022-11-17T14:58:38.240Z,99982.69
2022-11-17T15:01:15.366Z,99980.53
2022-11-17T15:03:41.529Z,99985.19
2022-11-17T15:06:12.964Z,99981.88
2022-11-17T15:08:41.499Z,99981.66
2022-11-17T15:11:14.052Z,99980.75
2022-11-17T15:13:40.134Z,99980.75
2022-11-17T15:16:06.986Z,99983.59
2022-11-17T15:18:33.152Z,99994.31
2022-11-17T15:21:02.250Z,99979.41
2022-11-17T15:23:28.378Z,99995.44
2022-11-17T15:25:54.954Z,99994.50
2022-11-17T15:28:23.246Z,99996.25
2022-11-17T15:30:49.984Z,100004.81
2022-11-17T15:33:16.083Z,100006.63
2022-11-17T15:35:42.615Z,100005.06
2022-11-17T15:38:08.849Z,100001.13
2022-11-17T15:40:35.341Z,100004.94
2022-11-17T15:43:04.958Z,100003.50
2022-11-17T15:45:32.808Z,99996.09
2022-11-17T15:47:59.453Z,99994.06
2022-11-17T15:50:26.822Z,100006.97
2022-11-17T15:53:08.363Z,100014.69
2022-11-17T15:55:35.078Z,100010.69
2022-11-17T15:58:01.676Z,100010.50
2022-11-17T16:00:28.299Z,100008.53
2022-11-17T16:02:58.569Z,100011.34
2022-11-17T16:05:25.930Z,100007.28
2022-11-17T16:07:52.188Z,100004.34
2022-11-17T16:10:19.025Z,100006.31
2022-11-17T16:12:45.795Z,100003.34
2022-11-17T16:15:12.332Z,99996.38
2022-11-17T16:17:38.488Z,100014.63
2022-11-17T16:20:05.588Z,100015.41
2022-11-17T16:22:32.048Z,100013.25
2022-11-17T16:24:58.504Z,100008.72
2022-11-17T16:27:24.603Z,100016.06
2022-11-17T16:29:51.479Z,100005.25
2022-11-17T16:32:17.731Z,99994.66
2022-11-17T16:34:48.287Z,100011.28
2022-11-17T16:37:14.738Z,100005.13
2022-11-17T16:39:41.221Z,100013.72
2022-11-17T16:42:07.470Z,100000.88
2022-11-17T16:44:34.328Z,100011.75
2022-11-17T16:47:00.918Z,100023.06
2022-11-17T16:49:29.364Z,100018.50
2022-11-17T16:51:55.525Z,100013.31
2022-11-17T16:54:22.515Z,100014.25
2022-11-17T16:56:48.826Z,100014.53
2022-11-17T16:59:16.985Z,100012.53
2022-11-17T17:01:43.831Z,100011.63
2022-11-17T17:04:11.655Z,100012.00
2022-11-17T17:06:42.760Z,100023.34
2022-11-17T17:09:11.287Z,100014.44
2022-11-17T17:11:37.661Z,100021.44
2022-11-17T17:14:07.554Z,100016.19
2022-11-17T17:16:35.195Z,100010.31
2022-11-17T17:19:05.720Z,100004.41
2022-11-17T17:21:33.105Z,100012.34
2022-11-17T17:23:59.845Z,100009.84
2022-11-17T17:26:28.350Z,100007.63
2022-11-17T17:28:57.008Z,100012.75
2022-11-17T17:31:25.017Z,100016.47
2022-11-17T17:33:54.512Z,100011.09
2022-11-17T17:36:23.797Z,100007.25
2022-11-17T17:38:55.811Z,100008.47
2022-11-17T17:41:31.054Z,100013.25
2022-11-17T17:44:02.297Z,100006.13
2022-11-17T17:46:30.102Z,100013.25
2022-11-17T17:48:57.261Z,100011.75
2022-11-17T17:51:25.127Z,99996.75
2022-11-17T17:53:53.140Z,99996.38
2022-11-17T17:56:20.877Z,100000.56
2022-11-17T17:58:50.175Z,99999.44
2022-11-17T18:01:24.095Z,100003.84
2022-11-17T18:03:53.125Z,100009.78
2022-11-17T18:06:21.622Z,100017.91
2022-11-17T18:08:49.673Z,100022.88
2022-11-17T18:11:19.007Z,100020.06
2022-11-17T18:13:48.282Z,100021.75
2022-11-17T18:16:40.533Z,100022.69
2022-11-17T18:19:08.315Z,100018.59
2022-11-17T18:21:35.257Z,100020.50
2022-11-17T18:24:02.980Z,100010.44
2022-11-17T18:26:34.772Z,100000.00
2022-11-17T18:29:14.566Z,100010.56
2022-11-17T18:31:42.151Z,100002.81
2022-11-17T18:34:20.409Z,100006.19
2022-11-17T18:36:47.862Z,100000.81
2022-11-17T18:39:16.024Z,99993.69
2022-11-17T18:41:42.976Z,99998.94
2022-11-17T18:44:18.715Z,100000.75
2022-11-17T18:46:45.224Z,100005.59
2022-11-17T18:49:12.059Z,99996.31
2022-11-17T18:51:38.607Z,99998.28
2022-11-17T18:54:05.560Z,99997.22
2022-11-17T18:56:35.108Z,99998.16
2022-11-17T18:59:02.121Z,99987.59
2022-11-17T19:01:31.558Z,100006.19
2022-11-17T19:04:00.320Z,100002.47
2022-11-17T19:06:26.802Z,99996.91
2022-11-17T19:08:53.886Z,100006.06
2022-11-17T19:11:21.981Z,100005.97
2022-11-17T19:13:49.087Z,100006.00
2022-11-17T19:16:24.043Z,100002.28
2022-11-17T19:18:53.468Z,100003.06
2022-11-17T19:21:25.389Z,99999.28
2022-11-17T19:23:58.169Z,99998.56
2022-11-17T19:26:27.074Z,99998.44
2022-11-17T19:28:59.911Z,100003.75
2022-11-17T19:31:27.569Z,100002.25
2022-11-17T19:33:55.512Z,99976.00
2022-11-17T19:36:24.843Z,99987.88
2022-11-17T19:38:56.103Z,99992.53
2022-11-17T19:41:24.134Z,99999.13
2022-11-17T19:43:56.776Z,99999.47
2022-11-17T19:46:24.554Z,99999.69
2022-11-17T19:48:51.290Z,99988.97
2022-11-17T19:51:21.835Z,100001.75
2022-11-17T19:53:51.008Z,99993.97
2022-11-17T19:56:18.625Z,99997.84
2022-11-17T19:58:49.111Z,99996.44
2022-11-17T20:01:22.056Z,99991.50
2022-11-17T20:03:49.583Z,99976.72
2022-11-17T20:06:22.677Z,99985.75
2022-11-17T20:08:49.647Z,99984.19
2022-11-17T20:11:19.023Z,99990.09
2022-11-17T20:13:45.649Z,99987.53
2022-11-17T20:16:19.539Z,99986.41
2022-11-17T20:18:50.280Z,99984.06
2022-11-17T20:21:17.130Z,99982.38
2022-11-17T20:23:44.709Z,99975.19
2022-11-17T20:26:13.557Z,99972.41
2022-11-17T20:28:41.662Z,99980.47
2022-11-17T20:31:12.969Z,99976.75
2022-11-17T20:33:41.188Z,99970.47
2022-11-17T20:36:10.282Z,99956.06
2022-11-17T20:38:38.239Z,99972.69
2022-11-17T20:41:07.949Z,99964.84
2022-11-17T20:43:35.686Z,99956.53
2022-11-17T20:46:03.569Z,99966.41
2022-11-17T20:48:33.362Z,99961.78
2022-11-17T20:51:10.291Z,99954.19
2022-11-17T20:53:37.318Z,99944.22
2022-11-17T20:56:05.987Z,99950.66
2022-11-17T20:58:33.684Z,99945.69
2022-11-17T21:01:10.629Z,99937.91
2022-11-17T21:03:37.996Z,99943.13
2022-11-17T21:06:04.650Z,99948.78
2022-11-17T21:08:33.843Z,99937.44
2022-11-17T21:11:03.266Z,99938.47
2022-11-17T21:13:32.175Z,99933.50
2022-11-17T21:16:03.088Z,99939.31
2022-11-17T21:18:29.953Z,99934.78
2022-11-17T21:20:58.685Z,99935.84
2022-11-17T21:23:26.874Z,99939.00
2022-11-17T21:25:53.160Z,99938.16
2022-11-17T21:28:19.629Z,99928.94
2022-11-17T21:30:46.030Z,99929.84
2022-11-17T21:33:12.466Z,99929.66
2022-11-17T21:35:38.929Z,99933.81
2022-11-17T21:38:05.354Z,99940.38
2022-11-17T21:40:31.775Z,99935.72
2022-11-17T21:42:58.934Z,99928.00
2022-11-17T21:45:25.023Z,99922.25
2022-11-17T21:47:56.500Z,99932.56
2022-11-17T21:50:25.505Z,99927.81
2022-11-17T21:52:53.405Z,99925.09
2022-11-17T21:55:19.542Z,99929.41
2022-11-17T21:57:49.688Z,99926.78
2022-11-17T22:00:16.446Z,99939.59
2022-11-17T22:02:42.973Z,99930.75
2022-11-17T22:05:09.232Z,99935.16
2022-11-17T22:07:36.122Z,99937.47
2022-11-17T22:10:02.699Z,99932.91
2022-11-17T22:12:30.261Z,99927.34
2022-11-17T22:14:56.375Z,99932.06
2022-11-17T22:17:22.820Z,99928.47
2022-11-17T22:19:49.219Z,99920.59
2022-11-17T22:22:15.585Z,99920.16
2022-11-17T22:24:46.939Z,99917.13
2022-11-17T22:27:16.037Z,99917.59
2022-11-17T22:29:42.152Z,99913.16
2022-11-17T22:32:09.017Z,99909.88
2022-11-17T22:34:35.179Z,99911.66
2022-11-17T22:37:01.819Z,99921.50
2022-11-17T22:39:27.942Z,99929.13
2022-11-17T22:41:54.418Z,99917.56
2022-11-17T22:44:20.577Z,99919.44
2022-11-17T22:46:46.956Z,99908.34
2022-11-17T22:49:13.169Z,99910.22
2022-11-17T22:51:58.312Z,99917.94
2022-11-17T22:54:24.433Z,99921.34
2022-11-17T22:56:50.896Z,99920.03
2022-11-17T22:59:17.176Z,99923.06
2022-11-17T23:01:43.758Z,99910.44
2022-11-17T23:04:11.050Z,99908.47
2022-11-17T23:06:37.417Z,99909.78
2022-11-17T23:09:03.723Z,99906.56
2022-11-17T23:11:37.133Z,99903.09
2022-11-17T23:14:07.174Z,99917.94
2022-11-17T23:16:33.642Z,99911.16
2022-11-17T23:18:59.755Z,99917.94
2022-11-17T23:21:26.214Z,99913.94
2022-11-17T23:23:52.330Z,99905.66
2022-11-17T23:26:18.900Z,99907.50
2022-11-17T23:28:45.050Z,99910.88
2022-11-17T23:31:14.015Z,99916.16
2022-11-17T23:33:42.518Z,99926.59
2022-11-17T23:36:20.115Z,99924.09
2022-11-17T23:38:49.954Z,99933.81
2022-11-17T23:41:18.747Z,99931.84
2022-11-17T23:43:45.302Z,99933.16
2022-11-17T23:46:15.298Z,99941.94
2022-11-17T23:48:42.699Z,99934.56
2022-11-17T23:51:12.091Z,99932.28
2022-11-17T23:53:38.641Z,99938.88
2022-11-17T23:56:06.092Z,99937.91
2022-11-17T23:58:32.735Z,99937.56
